• Join FlightAware (Why Join?)
  • Login
  • US Flag 
06:21PM EDT


 

Airport Tracker/Info


-or-


 

Live Flight TrackerFlight Track Log ✈ CTL18 ✈ 21-May-2013 ✈ KPTK - KMBS

Flight Track Log - Related Links

Times and Time Zones

All times are in EDT time to prevent confusion due to time zone crossing. See the CTL18 flight status page for this flight to view local times or setup timezone preferences in your user account.

Time Position Orientation Groundspeed Altitude Reporting Facility
EDT Latitude Longitude Course Direction KTS MPH feet Rate Location/Type
06:55PM 42.6622 -83.4464 26° Northeast 106 122 1,500  Level Cleveland Center
06:57PM 42.7193 -83.4091 26° Northeast  Level FlightAware Approximate
07:04PM 42.9511 -83.4228 321° Northwest  Level FlightAware Approximate
07:05PM 42.9785 -83.4529 321° Northwest  Level FlightAware Approximate
07:06PM 43.0059 -83.4831 321° Northwest  Level FlightAware Approximate
07:07PM 43.0332 -83.5134 321° Northwest  Level FlightAware Approximate
07:08PM 43.0606 -83.5436 321° Northwest  Level FlightAware Approximate
07:09PM 43.0880 -83.5739 321° Northwest  Level FlightAware Approximate
07:10PM 43.1153 -83.6041 321° Northwest  Level FlightAware Approximate
07:11PM 43.1427 -83.6345 321° Northwest  Level FlightAware Approximate
07:12PM 43.1700 -83.6648 321° Northwest  Level FlightAware Approximate
07:13PM 43.1974 -83.6952 321° Northwest  Level FlightAware Approximate
07:14PM 43.2244 -83.7261 318° Northwest  Level FlightAware Approximate
07:15PM 43.2507 -83.7581 318° Northwest  Level FlightAware Approximate
07:16PM 43.2770 -83.7902 318° Northwest  Level FlightAware Approximate
07:17PM 43.3033 -83.8224 318° Northwest  Level FlightAware Approximate
07:18PM 43.3296 -83.8545 318° Northwest  Level FlightAware Approximate
07:19PM 43.3558 -83.8867 318° Northwest  Level FlightAware Approximate
07:20PM 43.3834 -83.9167 324° Northwest  Level FlightAware Approximate
07:21PM 43.4119 -83.9451 324° Northwest  Level FlightAware Approximate
07:22PM 43.4403 -83.9736 324° Northwest  Level FlightAware Approximate
07:23PM 43.4688 -84.0021 324° Northwest  Level FlightAware Approximate
07:24PM 43.4972 -84.0306 324° Northwest  Level FlightAware Approximate
07:25PM 43.5167 -84.0667 305° West  Level FlightAware Approximate
07:26PM 43.5329 -84.0796 305° West  Level Estimated